createdAt,value
2019-02-02T00:00:04.380Z,0.10
2019-02-02T00:02:31.863Z,0.10
2019-02-02T00:04:58.555Z,0.10
2019-02-02T00:07:25.033Z,0.20
2019-02-02T00:09:51.503Z,0.10
2019-02-02T00:12:17.980Z,0.10
2019-02-02T00:14:45.320Z,0.10
2019-02-02T00:17:11.917Z,0.20
2019-02-02T00:19:38.618Z,0.20
2019-02-02T00:22:05.339Z,0.20
2019-02-02T00:24:31.794Z,0.10
2019-02-02T00:26:58.260Z,0.20
2019-02-02T00:29:24.716Z,0.20
2019-02-02T00:31:51.182Z,0.20
2019-02-02T00:34:17.871Z,0.10
2019-02-02T00:36:44.352Z,0.10
2019-02-02T00:39:10.809Z,0.20
2019-02-02T00:41:37.524Z,0.10
2019-02-02T00:44:04.490Z,0.20
2019-02-02T00:46:30.952Z,0.20
2019-02-02T00:48:58.970Z,0.20
2019-02-02T00:51:25.424Z,0.20
2019-02-02T00:53:52.139Z,0.20
2019-02-02T00:56:18.591Z,0.20
2019-02-02T00:58:45.084Z,0.20
2019-02-02T01:01:11.636Z,0.10
2019-02-02T01:03:38.359Z,0.10
2019-02-02T01:06:05.382Z,0.10
2019-02-02T01:08:31.952Z,0.10
2019-02-02T01:10:58.408Z,0.10
2019-02-02T01:13:24.887Z,0.00
2019-02-02T01:15:51.576Z,0.00
2019-02-02T01:18:18.084Z,0.00
2019-02-02T01:20:44.795Z,0.00
2019-02-02T01:23:11.285Z,0.00
2019-02-02T01:25:38.091Z,0.00
2019-02-02T01:28:05.697Z,0.00
2019-02-02T01:30:32.329Z,0.00
2019-02-02T01:32:58.794Z,0.00
2019-02-02T01:35:25.263Z,0.00
2019-02-02T01:37:51.717Z,0.00
2019-02-02T01:40:18.345Z,0.00
2019-02-02T01:42:45.300Z,0.00
2019-02-02T01:45:13.524Z,-0.10
2019-02-02T01:47:39.993Z,-0.10
2019-02-02T01:50:07.909Z,-0.10
2019-02-02T01:52:34.372Z,-0.10
2019-02-02T01:55:00.909Z,-0.10
2019-02-02T01:57:27.635Z,0.00
2019-02-02T01:59:54.364Z,0.00
2019-02-02T02:02:20.819Z,0.00
2019-02-02T02:04:47.287Z,0.00
2019-02-02T02:07:14.867Z,0.00
2019-02-02T02:09:41.383Z,0.00
2019-02-02T02:12:08.347Z,0.00
2019-02-02T02:14:34.819Z,0.00
2019-02-02T02:17:01.631Z,0.00
2019-02-02T02:19:28.353Z,-0.10
2019-02-02T02:21:54.817Z,-0.10
2019-02-02T02:24:21.303Z,-0.10
2019-02-02T02:26:47.749Z,-0.10
2019-02-02T02:29:14.468Z,-0.10
2019-02-02T02:31:40.924Z,-0.10
2019-02-02T02:34:07.391Z,-0.10
2019-02-02T02:36:34.083Z,-0.10
2019-02-02T02:39:00.781Z,-0.10
2019-02-02T02:41:27.497Z,-0.10
2019-02-02T02:43:54.200Z,0.00
2019-02-02T02:46:20.692Z,0.00
2019-02-02T02:48:47.476Z,0.00
2019-02-02T02:51:13.952Z,0.00
2019-02-02T02:53:40.681Z,0.00
2019-02-02T02:56:07.228Z,0.00
2019-02-02T02:58:41.573Z,0.00
2019-02-02T03:01:02.399Z,0.00
2019-02-02T03:03:29.344Z,0.00
2019-02-02T03:05:55.808Z,0.00
2019-02-02T03:08:22.266Z,0.00
2019-02-02T03:10:48.984Z,0.00
2019-02-02T03:13:15.456Z,0.00
2019-02-02T03:15:41.933Z,-0.10
2019-02-02T03:18:08.388Z,-0.10
2019-02-02T03:20:34.854Z,0.00
2019-02-02T03:23:01.304Z,0.00
2019-02-02T03:25:27.777Z,0.00
2019-02-02T03:27:54.240Z,0.00
2019-02-02T03:30:20.747Z,0.00
2019-02-02T03:32:47.277Z,-0.10
2019-02-02T03:35:14.769Z,0.00
2019-02-02T03:37:41.248Z,0.00
2019-02-02T03:40:09.786Z,0.00
2019-02-02T03:42:36.722Z,0.00
2019-02-02T03:45:03.455Z,0.00
2019-02-02T03:47:30.168Z,0.00
2019-02-02T03:49:57.175Z,0.00
2019-02-02T03:52:23.649Z,0.00
2019-02-02T03:54:50.117Z,0.00
2019-02-02T03:57:16.832Z,-0.10
2019-02-02T03:59:43.284Z,-0.10
2019-02-02T04:02:09.756Z,-0.10
2019-02-02T04:04:36.217Z,-0.10
2019-02-02T04:07:03.238Z,-0.10
2019-02-02T04:09:29.683Z,-0.10
2019-02-02T04:11:56.167Z,-0.10
2019-02-02T04:14:22.624Z,-0.10
2019-02-02T04:16:49.487Z,-0.20
2019-02-02T04:19:15.943Z,-0.10
2019-02-02T04:21:42.415Z,-0.10
2019-02-02T04:24:09.124Z,-0.20
2019-02-02T04:26:35.597Z,-0.20
2019-02-02T04:29:02.076Z,-0.10
2019-02-02T04:31:28.898Z,-0.20
2019-02-02T04:33:55.347Z,-0.10
2019-02-02T04:36:22.158Z,-0.10
2019-02-02T04:38:48.952Z,-0.10
2019-02-02T04:41:15.791Z,-0.10
2019-02-02T04:43:42.332Z,-0.10
2019-02-02T04:46:08.999Z,-0.10
2019-02-02T04:48:35.522Z,-0.10
2019-02-02T04:51:03.264Z,-0.10
2019-02-02T04:53:29.980Z,-0.10
2019-02-02T04:55:56.715Z,-0.10
2019-02-02T04:58:23.176Z,0.00
2019-02-02T05:00:49.939Z,-0.10
2019-02-02T05:03:16.476Z,-0.10
2019-02-02T05:05:42.944Z,-0.10
2019-02-02T05:08:09.671Z,-0.10
2019-02-02T05:10:36.158Z,-0.10
2019-02-02T05:13:02.640Z,-0.10
2019-02-02T05:15:29.340Z,-0.10
2019-02-02T05:17:55.819Z,-0.10
2019-02-02T05:20:22.272Z,-0.10
2019-02-02T05:22:49.476Z,-0.10
2019-02-02T05:25:16.188Z,-0.10
2019-02-02T05:27:42.660Z,-0.10
2019-02-02T05:30:13.879Z,0.00
2019-02-02T05:32:40.347Z,0.00
2019-02-02T05:35:07.413Z,0.00
2019-02-02T05:37:34.132Z,0.00
2019-02-02T05:40:00.691Z,0.00
2019-02-02T05:42:27.416Z,0.00
2019-02-02T05:44:53.872Z,0.00
2019-02-02T05:47:20.592Z,0.10
2019-02-02T05:49:49.598Z,0.10
2019-02-02T05:52:15.514Z,0.00
2019-02-02T05:54:42.316Z,0.00
2019-02-02T05:57:08.780Z,0.00
2019-02-02T05:59:35.516Z,0.00
2019-02-02T06:02:01.994Z,0.00
2019-02-02T06:04:28.449Z,0.10
2019-02-02T06:06:54.920Z,0.00
2019-02-02T06:09:22.888Z,0.00
2019-02-02T06:11:49.560Z,0.00
2019-02-02T06:14:16.272Z,0.00
2019-02-02T06:16:42.737Z,0.00
2019-02-02T06:19:09.204Z,0.00
2019-02-02T06:21:35.903Z,0.00
2019-02-02T06:24:02.377Z,0.00
2019-02-02T06:26:29.084Z,0.00
2019-02-02T06:28:56.028Z,0.00
2019-02-02T06:31:22.483Z,0.00
2019-02-02T06:33:49.176Z,0.00
2019-02-02T06:36:15.872Z,-0.10
2019-02-02T06:38:42.339Z,-0.10
2019-02-02T06:41:09.043Z,0.00
2019-02-02T06:43:35.513Z,-0.10
2019-02-02T06:46:02.217Z,0.00
2019-02-02T06:48:28.684Z,-0.10
2019-02-02T06:50:55.140Z,-0.10
2019-02-02T06:53:21.608Z,-0.10
2019-02-02T06:55:48.330Z,-0.10
2019-02-02T06:58:14.793Z,-0.10
2019-02-02T07:00:41.259Z,-0.10
2019-02-02T07:03:07.730Z,-0.10
2019-02-02T07:05:34.181Z,0.00
2019-02-02T07:08:00.651Z,0.00
2019-02-02T07:10:27.126Z,0.00
2019-02-02T07:12:53.608Z,0.00
2019-02-02T07:15:21.084Z,0.00
2019-02-02T07:17:47.563Z,0.00
2019-02-02T07:20:14.475Z,-0.10
2019-02-02T07:22:41.148Z,-0.10
2019-02-02T07:25:07.909Z,-0.10
2019-02-02T07:27:34.625Z,-0.10
2019-02-02T07:30:01.076Z,-0.10
2019-02-02T07:32:27.555Z,0.00
2019-02-02T07:34:54.003Z,0.00
2019-02-02T07:37:20.467Z,0.00
2019-02-02T07:39:47.428Z,0.00
2019-02-02T07:42:14.152Z,0.10
2019-02-02T07:44:40.969Z,0.10
2019-02-02T07:47:09.282Z,0.10
2019-02-02T07:49:35.939Z,0.20
2019-02-02T07:52:02.396Z,0.20
2019-02-02T07:54:29.092Z,0.20
2019-02-02T07:56:55.800Z,0.20
2019-02-02T07:59:22.260Z,0.30
2019-02-02T08:01:48.720Z,0.30
2019-02-02T08:04:15.443Z,0.40
2019-02-02T08:06:41.900Z,0.40
2019-02-02T08:09:08.368Z,0.50
2019-02-02T08:11:34.831Z,0.50
2019-02-02T08:14:01.561Z,0.50
2019-02-02T08:16:28.265Z,0.50
2019-02-02T08:18:55.033Z,0.50
2019-02-02T08:21:21.492Z,0.50
2019-02-02T08:23:47.972Z,0.50
2019-02-02T08:26:14.532Z,0.60
2019-02-02T08:28:40.999Z,0.60
2019-02-02T08:31:07.459Z,0.70
2019-02-02T08:33:33.934Z,0.80
2019-02-02T08:36:00.391Z,0.80
2019-02-02T08:38:26.965Z,0.90
2019-02-02T08:40:53.420Z,1.00
2019-02-02T08:43:19.892Z,1.10
2019-02-02T08:45:46.343Z,1.10
2019-02-02T08:48:13.040Z,1.10
2019-02-02T08:50:39.846Z,1.20
2019-02-02T08:53:06.316Z,1.20
2019-02-02T08:55:33.297Z,1.10
2019-02-02T08:58:00.240Z,1.10
2019-02-02T09:00:26.759Z,1.20
2019-02-02T09:02:53.484Z,1.20
2019-02-02T09:05:20.037Z,1.30
2019-02-02T09:07:46.792Z,1.30
2019-02-02T09:10:14.293Z,1.40
2019-02-02T09:12:40.795Z,1.40
2019-02-02T09:15:08.280Z,1.50
2019-02-02T09:17:34.726Z,1.50
2019-02-02T09:20:01.211Z,1.40
2019-02-02T09:22:27.662Z,1.40
2019-02-02T09:24:54.140Z,1.40
2019-02-02T09:27:20.840Z,1.50
2019-02-02T09:29:47.834Z,1.60
2019-02-02T09:32:14.488Z,1.60
2019-02-02T09:34:40.938Z,1.60
2019-02-02T09:37:07.404Z,1.60
2019-02-02T09:39:33.869Z,1.60
2019-02-02T09:42:00.355Z,1.70
2019-02-02T09:44:26.815Z,1.70
2019-02-02T09:46:53.316Z,1.80
2019-02-02T09:49:19.779Z,1.90
2019-02-02T09:51:46.251Z,2.00
2019-02-02T09:54:13.504Z,2.10
2019-02-02T09:56:40.012Z,2.10
2019-02-02T09:59:09.764Z,2.20
2019-02-02T10:01:35.419Z,2.30
2019-02-02T10:04:01.880Z,2.30
2019-02-02T10:06:28.348Z,2.20
2019-02-02T10:08:54.808Z,2.10
2019-02-02T10:11:21.287Z,1.90
2019-02-02T10:13:48.107Z,1.80
2019-02-02T10:16:14.876Z,1.80
2019-02-02T10:18:41.331Z,1.70
2019-02-02T10:21:07.805Z,1.70
2019-02-02T10:23:34.517Z,1.70
2019-02-02T10:26:00.983Z,1.70
2019-02-02T10:28:27.697Z,1.70
2019-02-02T10:30:54.202Z,1.60
2019-02-02T10:33:20.912Z,1.60
2019-02-02T10:35:47.391Z,1.50
2019-02-02T10:38:13.879Z,1.40
2019-02-02T10:40:40.360Z,1.30
2019-02-02T10:43:06.819Z,1.20
2019-02-02T10:45:33.496Z,1.20
2019-02-02T10:47:59.948Z,1.10
2019-02-02T10:50:26.449Z,1.00
2019-02-02T10:52:52.908Z,0.90
2019-02-02T10:55:19.399Z,0.90
2019-02-02T10:57:46.096Z,0.80
2019-02-02T11:00:14.502Z,0.80
2019-02-02T11:02:41.013Z,0.80
2019-02-02T11:05:07.564Z,0.80
2019-02-02T11:07:34.405Z,0.70
2019-02-02T11:10:01.139Z,0.70
2019-02-02T11:12:27.746Z,0.70
2019-02-02T11:14:54.415Z,0.70
2019-02-02T11:17:21.249Z,0.60
2019-02-02T11:19:48.079Z,0.60
2019-02-02T11:22:14.921Z,0.60
2019-02-02T11:24:41.700Z,0.50
2019-02-02T11:27:09.307Z,0.50
2019-02-02T11:29:35.889Z,0.40
2019-02-02T11:32:03.280Z,0.40
2019-02-02T11:34:29.855Z,0.40
2019-02-02T11:36:56.339Z,0.50
2019-02-02T11:39:22.792Z,0.50
2019-02-02T11:41:49.289Z,0.60
2019-02-02T11:44:15.735Z,0.60
2019-02-02T11:46:42.208Z,0.70
2019-02-02T11:49:08.660Z,0.80
2019-02-02T11:51:35.144Z,0.80
2019-02-02T11:54:01.848Z,0.90
2019-02-02T11:56:28.348Z,0.80
2019-02-02T11:58:55.107Z,0.80
2019-02-02T12:01:21.596Z,0.90
2019-02-02T12:03:48.296Z,0.90
2019-02-02T12:06:14.840Z,0.90
2019-02-02T12:08:41.296Z,1.00
2019-02-02T12:11:07.797Z,1.00
2019-02-02T12:13:34.503Z,1.00
2019-02-02T12:16:00.999Z,1.10
2019-02-02T12:18:27.805Z,1.20
2019-02-02T12:20:54.560Z,1.20
2019-02-02T12:23:21.011Z,1.20
2019-02-02T12:25:47.745Z,1.20
2019-02-02T12:28:14.203Z,1.20
2019-02-02T12:30:40.948Z,1.10
2019-02-02T12:33:07.408Z,1.00
2019-02-02T12:35:34.159Z,1.00
2019-02-02T12:38:00.885Z,1.00
2019-02-02T12:40:27.592Z,1.00
2019-02-02T12:42:54.103Z,1.10
2019-02-02T12:45:31.149Z,1.10
2019-02-02T12:47:57.628Z,1.20
2019-02-02T12:50:24.336Z,1.20
2019-02-02T12:52:50.839Z,1.30
2019-02-02T12:55:17.291Z,1.30
2019-02-02T12:57:44.057Z,1.20
2019-02-02T13:00:12.239Z,1.30
2019-02-02T13:02:39.013Z,1.20
2019-02-02T13:05:05.747Z,1.20
2019-02-02T13:07:32.280Z,1.30
2019-02-02T13:09:58.879Z,1.30
2019-02-02T13:12:25.447Z,1.30
2019-02-02T13:14:51.896Z,1.30
2019-02-02T13:17:18.653Z,1.30
2019-02-02T13:19:45.194Z,1.30
2019-02-02T13:22:12.179Z,1.20
2019-02-02T13:24:38.635Z,1.20
2019-02-02T13:27:05.384Z,1.20
2019-02-02T13:29:31.973Z,1.20
2019-02-02T13:31:58.551Z,1.20
2019-02-02T13:34:25.010Z,1.20
2019-02-02T13:36:51.517Z,1.20
2019-02-02T13:39:18.064Z,1.30
2019-02-02T13:41:44.564Z,1.40
2019-02-02T13:44:11.015Z,1.40
2019-02-02T13:46:37.764Z,1.50
2019-02-02T13:49:04.227Z,1.50
2019-02-02T13:51:30.976Z,1.50
2019-02-02T13:53:57.428Z,1.50
2019-02-02T13:56:23.881Z,1.50
2019-02-02T13:58:50.779Z,1.50
2019-02-02T14:01:17.487Z,1.50
2019-02-02T14:03:44.243Z,1.40
2019-02-02T14:06:10.959Z,1.40
2019-02-02T14:08:37.457Z,1.40
2019-02-02T14:11:03.925Z,1.30
2019-02-02T14:13:30.424Z,1.20
2019-02-02T14:15:56.916Z,1.10
2019-02-02T14:18:23.487Z,1.10
2019-02-02T14:20:49.944Z,1.10
2019-02-02T14:23:16.676Z,0.90
2019-02-02T14:25:43.175Z,0.90
2019-02-02T14:28:09.684Z,0.90
2019-02-02T14:30:36.156Z,0.80
2019-02-02T14:33:13.317Z,0.80
2019-02-02T14:35:31.013Z,0.70
2019-02-02T14:37:57.742Z,0.70
2019-02-02T14:40:24.491Z,0.80
2019-02-02T14:42:50.993Z,0.90
2019-02-02T14:45:18.190Z,0.90
2019-02-02T14:47:44.691Z,1.00
2019-02-02T14:50:12.559Z,1.00
2019-02-02T14:52:39.051Z,1.00
2019-02-02T14:55:06.136Z,1.10
2019-02-02T14:57:33.075Z,1.10
2019-02-02T14:59:59.806Z,1.10
2019-02-02T15:02:26.795Z,1.10
2019-02-02T15:04:53.500Z,1.10
2019-02-02T15:07:19.996Z,1.10
2019-02-02T15:09:46.668Z,1.20
2019-02-02T15:12:13.133Z,1.20
2019-02-02T15:14:39.655Z,1.20
2019-02-02T15:17:06.148Z,1.20
2019-02-02T15:19:32.656Z,1.10
2019-02-02T15:21:59.111Z,1.10
2019-02-02T15:24:25.616Z,1.10
2019-02-02T15:26:52.070Z,1.10
2019-02-02T15:29:18.617Z,1.10
2019-02-02T15:31:45.065Z,1.10
2019-02-02T15:34:11.792Z,1.10
2019-02-02T15:36:38.261Z,1.10
2019-02-02T15:39:06.852Z,1.10
2019-02-02T15:41:33.317Z,1.10
2019-02-02T15:44:00.157Z,1.00
2019-02-02T15:46:26.873Z,1.00
2019-02-02T15:48:53.366Z,1.00
2019-02-02T15:51:19.832Z,1.00
2019-02-02T15:53:48.773Z,1.00
2019-02-02T15:56:15.161Z,1.00
2019-02-02T15:58:41.667Z,1.00
2019-02-02T16:01:09.223Z,1.00
2019-02-02T16:03:35.719Z,1.10
2019-02-02T16:06:02.443Z,1.10
2019-02-02T16:08:28.944Z,1.00
2019-02-02T16:10:55.399Z,1.10
2019-02-02T16:13:21.905Z,1.10
2019-02-02T16:15:48.466Z,1.10
2019-02-02T16:18:15.215Z,1.10
2019-02-02T16:20:42.639Z,1.20
2019-02-02T16:23:09.423Z,1.20
2019-02-02T16:25:35.877Z,1.20
2019-02-02T16:28:02.385Z,1.30
2019-02-02T16:30:28.887Z,1.30
2019-02-02T16:32:55.435Z,1.30
2019-02-02T16:35:22.273Z,1.30
2019-02-02T16:37:49.215Z,1.20
2019-02-02T16:40:17.031Z,1.20
2019-02-02T16:42:43.489Z,1.30
2019-02-02T16:45:11.400Z,1.20
2019-02-02T16:47:37.874Z,1.20
2019-02-02T16:50:05.040Z,1.10
2019-02-02T16:52:31.768Z,1.00
2019-02-02T16:54:58.522Z,0.90
2019-02-02T16:57:25.207Z,0.90
2019-02-02T16:59:51.710Z,0.80
2019-02-02T17:02:18.163Z,0.80
2019-02-02T17:04:44.668Z,0.70
2019-02-02T17:07:11.476Z,0.70
2019-02-02T17:09:41.393Z,0.70
2019-02-02T17:12:07.295Z,0.60
2019-02-02T17:14:34.048Z,0.60
2019-02-02T17:17:00.509Z,0.60
2019-02-02T17:19:27.007Z,0.60
2019-02-02T17:21:53.724Z,0.60
2019-02-02T17:24:20.239Z,0.60
2019-02-02T17:26:46.751Z,0.60
2019-02-02T17:29:13.293Z,0.60
2019-02-02T17:31:39.975Z,0.60
2019-02-02T17:34:06.830Z,0.60
2019-02-02T17:36:33.433Z,0.60
2019-02-02T17:38:59.983Z,0.60
2019-02-02T17:41:26.435Z,0.50
2019-02-02T17:43:53.156Z,0.50
2019-02-02T17:46:19.908Z,0.60
2019-02-02T17:48:46.371Z,0.60
2019-02-02T17:51:12.979Z,0.60
2019-02-02T17:53:39.668Z,0.60
2019-02-02T17:56:06.411Z,0.60
2019-02-02T17:58:39.687Z,0.50
2019-02-02T18:01:01.739Z,0.60
2019-02-02T18:03:28.189Z,0.60
2019-02-02T18:05:55.159Z,0.60
2019-02-02T18:08:21.615Z,0.60
2019-02-02T18:10:48.345Z,0.60
2019-02-02T18:13:14.804Z,0.60
2019-02-02T18:15:41.561Z,0.60
2019-02-02T18:18:09.138Z,0.60
2019-02-02T18:20:35.640Z,0.60
2019-02-02T18:23:02.108Z,0.60
2019-02-02T18:25:28.599Z,0.60
2019-02-02T18:27:55.088Z,0.60
2019-02-02T18:30:21.588Z,0.60
2019-02-02T18:32:48.044Z,0.50
2019-02-02T18:35:14.560Z,0.60
2019-02-02T18:37:41.010Z,0.60
2019-02-02T18:40:08.303Z,0.60
2019-02-02T18:42:35.580Z,0.60
2019-02-02T18:45:02.089Z,0.60
2019-02-02T18:47:28.615Z,0.60
2019-02-02T18:49:55.424Z,0.60
2019-02-02T18:52:22.123Z,0.60
2019-02-02T18:54:48.620Z,0.60
2019-02-02T18:57:15.324Z,0.60
2019-02-02T18:59:41.776Z,0.60
2019-02-02T19:02:08.520Z,0.60
2019-02-02T19:04:34.976Z,0.50
2019-02-02T19:07:01.477Z,0.50
2019-02-02T19:09:27.935Z,0.50
2019-02-02T19:11:54.440Z,0.50
2019-02-02T19:14:20.892Z,0.50
2019-02-02T19:16:47.436Z,0.60
2019-02-02T19:19:13.895Z,0.50
2019-02-02T19:21:40.662Z,0.60
2019-02-02T19:24:09.283Z,0.60
2019-02-02T19:26:35.951Z,0.60
2019-02-02T19:29:02.443Z,0.60
2019-02-02T19:31:28.939Z,0.60
2019-02-02T19:33:55.395Z,0.50
2019-02-02T19:36:21.896Z,0.50
2019-02-02T19:38:48.351Z,0.50
2019-02-02T19:41:15.099Z,0.50
2019-02-02T19:43:41.792Z,0.50
2019-02-02T19:46:08.533Z,0.50
2019-02-02T19:48:35.236Z,0.50
2019-02-02T19:51:01.731Z,0.60
2019-02-02T19:53:28.325Z,0.60
2019-02-02T19:55:54.986Z,0.60
2019-02-02T19:58:21.691Z,0.60
2019-02-02T20:00:48.287Z,0.50
2019-02-02T20:03:14.739Z,0.50
2019-02-02T20:05:41.438Z,0.50
2019-02-02T20:08:07.927Z,0.50
2019-02-02T20:10:34.386Z,0.50
2019-02-02T20:13:01.112Z,0.50
2019-02-02T20:15:27.564Z,0.50
2019-02-02T20:17:54.065Z,0.60
2019-02-02T20:20:21.370Z,0.50
2019-02-02T20:22:48.032Z,0.50
2019-02-02T20:25:14.503Z,0.50
2019-02-02T20:27:41.035Z,0.50
2019-02-02T20:30:08.976Z,0.50
2019-02-02T20:32:35.719Z,0.50
2019-02-02T20:35:02.392Z,0.40
2019-02-02T20:37:29.136Z,0.40
2019-02-02T20:39:55.601Z,0.40
2019-02-02T20:42:22.097Z,0.30
2019-02-02T20:44:48.812Z,0.30
2019-02-02T20:47:15.314Z,0.30
2019-02-02T20:49:41.864Z,0.20
2019-02-02T20:52:08.759Z,0.20
2019-02-02T20:54:35.216Z,0.20
2019-02-02T20:57:01.806Z,0.30
2019-02-02T20:59:28.507Z,0.30
2019-02-02T21:01:54.998Z,0.30
2019-02-02T21:04:21.455Z,0.30
2019-02-02T21:06:47.953Z,0.40
2019-02-02T21:09:14.507Z,0.40
2019-02-02T21:11:41.009Z,0.40
2019-02-02T21:14:08.063Z,0.40
2019-02-02T21:16:34.564Z,0.30
2019-02-02T21:19:01.023Z,0.30
2019-02-02T21:21:27.616Z,0.30
2019-02-02T21:23:54.947Z,0.30
2019-02-02T21:26:21.663Z,0.20
2019-02-02T21:28:50.645Z,0.30
2019-02-02T21:31:16.784Z,0.20
2019-02-02T21:33:43.293Z,0.20
2019-02-02T21:36:09.845Z,0.20
2019-02-02T21:38:36.592Z,0.20
2019-02-02T21:41:04.460Z,0.30
2019-02-02T21:43:30.959Z,0.30
2019-02-02T21:45:57.672Z,0.30
2019-02-02T21:48:24.169Z,0.30
2019-02-02T21:50:50.724Z,0.30
2019-02-02T21:53:17.223Z,0.30
2019-02-02T21:55:43.684Z,0.30
2019-02-02T21:58:10.276Z,0.30
2019-02-02T22:00:38.156Z,0.30
2019-02-02T22:03:05.075Z,0.30
2019-02-02T22:05:31.524Z,0.30
2019-02-02T22:07:58.243Z,0.20
2019-02-02T22:10:24.695Z,0.30
2019-02-02T22:12:52.864Z,0.20
2019-02-02T22:15:20.256Z,0.20
2019-02-02T22:17:47.104Z,0.20
2019-02-02T22:20:13.671Z,0.20
2019-02-02T22:22:40.491Z,0.20
2019-02-02T22:25:08.708Z,0.20
2019-02-02T22:27:35.423Z,0.10
2019-02-02T22:30:02.200Z,0.10
2019-02-02T22:32:28.696Z,0.10
2019-02-02T22:34:55.157Z,0.10
2019-02-02T22:37:21.613Z,0.10
2019-02-02T22:39:48.192Z,0.10
2019-02-02T22:42:14.648Z,0.10
2019-02-02T22:44:41.132Z,0.10
2019-02-02T22:47:07.583Z,0.10
2019-02-02T22:49:34.060Z,0.10
2019-02-02T22:52:03.039Z,0.10
2019-02-02T22:54:29.141Z,0.10
2019-02-02T22:56:55.844Z,0.10
2019-02-02T22:59:22.339Z,0.10
2019-02-02T23:01:52.117Z,0.10
2019-02-02T23:04:53.674Z,0.10
2019-02-02T23:07:32.569Z,0.10
2019-02-02T23:10:10.136Z,0.10
2019-02-02T23:12:40.647Z,0.10
2019-02-02T23:15:11.432Z,0.10
2019-02-02T23:17:38.263Z,0.10
2019-02-02T23:20:05.305Z,0.10
2019-02-02T23:22:31.875Z,0.10
2019-02-02T23:24:58.430Z,0.10
2019-02-02T23:27:24.985Z,0.10
2019-02-02T23:29:51.693Z,0.10
2019-02-02T23:32:18.146Z,0.10
2019-02-02T23:34:45.111Z,0.10
2019-02-02T23:37:11.568Z,0.10
2019-02-02T23:39:38.053Z,0.10
2019-02-02T23:42:04.751Z,0.10
2019-02-02T23:44:31.477Z,0.00
2019-02-02T23:46:57.927Z,0.00
2019-02-02T23:49:24.410Z,0.00
2019-02-02T23:51:51.155Z,0.00
2019-02-02T23:54:17.627Z,0.00
2019-02-02T23:56:44.568Z,0.00
2019-02-02T23:59:11.036Z,0.00
